sensor_id;sensor_type;location;lat;lon;timestamp;temperature;humidity
13694;DHT22;6919;52.344;14.518;2024-03-02T00:01:52;10.00;99.90
13694;DHT22;6919;52.344;14.518;2024-03-02T00:04:22;10.00;99.90
13694;DHT22;6919;52.344;14.518;2024-03-02T00:06:51;9.90;99.90
13694;DHT22;6919;52.344;14.518;2024-03-02T00:09:21;9.90;99.90
13694;DHT22;6919;52.344;14.518;2024-03-02T00:11:50;10.00;99.90
13694;DHT22;6919;52.344;14.518;2024-03-02T00:14:19;10.00;99.90
13694;DHT22;6919;52.344;14.518;2024-03-02T00:16:47;10.00;99.90
13694;DHT22;6919;52.344;14.518;2024-03-02T00:19:15;10.10;99.90
13694;DHT22;6919;52.344;14.518;2024-03-02T00:21:45;10.10;99.90
13694;DHT22;6919;52.344;14.518;2024-03-02T00:24:20;10.10;99.90
13694;DHT22;6919;52.344;14.518;2024-03-02T00:26:49;10.10;99.90
13694;DHT22;6919;52.344;14.518;2024-03-02T00:29:18;10.20;99.90
13694;DHT22;6919;52.344;14.518;2024-03-02T00:31:47;10.20;99.90
13694;DHT22;6919;52.344;14.518;2024-03-02T00:34:17;10.10;99.90
13694;DHT22;6919;52.344;14.518;2024-03-02T00:36:47;10.00;99.90
13694;DHT22;6919;52.344;14.518;2024-03-02T00:39:16;10.00;99.90
13694;DHT22;6919;52.344;14.518;2024-03-02T00:41:45;10.00;99.90
13694;DHT22;6919;52.344;14.518;2024-03-02T00:44:15;10.00;99.90
13694;DHT22;6919;52.344;14.518;2024-03-02T00:46:48;10.10;99.90
13694;DHT22;6919;52.344;14.518;2024-03-02T00:49:18;10.00;99.90
13694;DHT22;6919;52.344;14.518;2024-03-02T00:51:53;10.00;99.90
13694;DHT22;6919;52.344;14.518;2024-03-02T00:54:22;10.00;99.90
13694;DHT22;6919;52.344;14.518;2024-03-02T00:56:53;10.10;99.90
13694;DHT22;6919;52.344;14.518;2024-03-02T00:59:23;10.00;99.90
13694;DHT22;6919;52.344;14.518;2024-03-02T01:01:51;10.00;99.90
13694;DHT22;6919;52.344;14.518;2024-03-02T01:04:20;10.00;99.90
13694;DHT22;6919;52.344;14.518;2024-03-02T01:06:49;10.00;99.90
13694;DHT22;6919;52.344;14.518;2024-03-02T01:09:18;10.00;99.90
13694;DHT22;6919;52.344;14.518;2024-03-02T01:11:47;10.00;99.90
13694;DHT22;6919;52.344;14.518;2024-03-02T01:14:16;10.00;99.90
13694;DHT22;6919;52.344;14.518;2024-03-02T01:16:44;10.00;99.90
13694;DHT22;6919;52.344;14.518;2024-03-02T01:19:12;10.00;99.90
13694;DHT22;6919;52.344;14.518;2024-03-02T01:21:41;10.10;99.90
13694;DHT22;6919;52.344;14.518;2024-03-02T01:24:11;10.20;99.90
13694;DHT22;6919;52.344;14.518;2024-03-02T01:26:40;10.20;99.90
13694;DHT22;6919;52.344;14.518;2024-03-02T01:29:08;10.20;99.90
13694;DHT22;6919;52.344;14.518;2024-03-02T01:31:36;10.20;99.90
13694;DHT22;6919;52.344;14.518;2024-03-02T01:34:06;10.10;99.90
13694;DHT22;6919;52.344;14.518;2024-03-02T01:36:34;10.10;99.90
13694;DHT22;6919;52.344;14.518;2024-03-02T01:39:03;10.10;99.90
13694;DHT22;6919;52.344;14.518;2024-03-02T01:41:37;10.10;99.90
13694;DHT22;6919;52.344;14.518;2024-03-02T01:44:05;10.10;99.90
13694;DHT22;6919;52.344;14.518;2024-03-02T01:46:33;10.20;99.90
13694;DHT22;6919;52.344;14.518;2024-03-02T01:49:02;10.20;99.90
13694;DHT22;6919;52.344;14.518;2024-03-02T01:51:31;10.20;99.90
13694;DHT22;6919;52.344;14.518;2024-03-02T01:53:59;10.10;99.90
13694;DHT22;6919;52.344;14.518;2024-03-02T01:56:27;10.20;99.90
13694;DHT22;6919;52.344;14.518;2024-03-02T01:58:58;10.20;99.90
13694;DHT22;6919;52.344;14.518;2024-03-02T02:01:26;10.20;99.90
13694;DHT22;6919;52.344;14.518;2024-03-02T02:03:54;10.10;99.90
13694;DHT22;6919;52.344;14.518;2024-03-02T02:06:23;10.20;99.90
13694;DHT22;6919;52.344;14.518;2024-03-02T02:08:51;10.20;99.90
13694;DHT22;6919;52.344;14.518;2024-03-02T02:11:20;10.10;99.90
13694;DHT22;6919;52.344;14.518;2024-03-02T02:13:48;10.20;99.90
13694;DHT22;6919;52.344;14.518;2024-03-02T02:16:18;10.20;99.90
13694;DHT22;6919;52.344;14.518;2024-03-02T02:18:46;10.20;99.90
13694;DHT22;6919;52.344;14.518;2024-03-02T02:21:15;10.20;99.90
13694;DHT22;6919;52.344;14.518;2024-03-02T02:23:44;10.20;99.90
13694;DHT22;6919;52.344;14.518;2024-03-02T02:26:15;10.20;99.90
13694;DHT22;6919;52.344;14.518;2024-03-02T02:28:43;10.20;99.90
13694;DHT22;6919;52.344;14.518;2024-03-02T02:31:13;10.20;99.90
13694;DHT22;6919;52.344;14.518;2024-03-02T02:33:42;10.20;99.90
13694;DHT22;6919;52.344;14.518;2024-03-02T02:36:11;10.20;99.90
13694;DHT22;6919;52.344;14.518;2024-03-02T02:38:45;10.20;99.90
13694;DHT22;6919;52.344;14.518;2024-03-02T02:41:16;10.20;99.90
13694;DHT22;6919;52.344;14.518;2024-03-02T02:43:44;10.30;99.90
13694;DHT22;6919;52.344;14.518;2024-03-02T02:46:12;10.20;99.90
13694;DHT22;6919;52.344;14.518;2024-03-02T02:48:40;10.10;99.90
13694;DHT22;6919;52.344;14.518;2024-03-02T02:51:09;10.20;99.90
13694;DHT22;6919;52.344;14.518;2024-03-02T02:53:37;10.10;99.90
13694;DHT22;6919;52.344;14.518;2024-03-02T02:56:08;10.10;99.90
13694;DHT22;6919;52.344;14.518;2024-03-02T02:58:38;10.10;99.90
13694;DHT22;6919;52.344;14.518;2024-03-02T03:01:08;10.10;99.90
13694;DHT22;6919;52.344;14.518;2024-03-02T03:03:36;10.10;99.90
13694;DHT22;6919;52.344;14.518;2024-03-02T03:06:04;10.10;99.90
13694;DHT22;6919;52.344;14.518;2024-03-02T03:08:33;10.10;99.90
13694;DHT22;6919;52.344;14.518;2024-03-02T03:11:01;10.20;99.90
13694;DHT22;6919;52.344;14.518;2024-03-02T03:13:31;10.20;99.90
13694;DHT22;6919;52.344;14.518;2024-03-02T03:15:59;10.20;99.90
13694;DHT22;6919;52.344;14.518;2024-03-02T03:18:28;10.20;99.90
13694;DHT22;6919;52.344;14.518;2024-03-02T03:20:56;10.10;99.90
13694;DHT22;6919;52.344;14.518;2024-03-02T03:23:24;10.10;99.90
13694;DHT22;6919;52.344;14.518;2024-03-02T03:25:53;10.00;99.90
13694;DHT22;6919;52.344;14.518;2024-03-02T03:28:21;10.00;99.90
13694;DHT22;6919;52.344;14.518;2024-03-02T03:30:51;10.10;99.90
13694;DHT22;6919;52.344;14.518;2024-03-02T03:33:19;10.10;99.90
13694;DHT22;6919;52.344;14.518;2024-03-02T03:35:47;10.10;99.90
13694;DHT22;6919;52.344;14.518;2024-03-02T03:38:15;10.20;99.90
13694;DHT22;6919;52.344;14.518;2024-03-02T03:40:44;10.10;99.90
13694;DHT22;6919;52.344;14.518;2024-03-02T03:43:12;10.10;99.90
13694;DHT22;6919;52.344;14.518;2024-03-02T03:45:41;10.10;99.90
13694;DHT22;6919;52.344;14.518;2024-03-02T03:48:11;10.10;99.90
13694;DHT22;6919;52.344;14.518;2024-03-02T03:50:39;10.10;99.90
13694;DHT22;6919;52.344;14.518;2024-03-02T03:53:07;10.10;99.90
13694;DHT22;6919;52.344;14.518;2024-03-02T03:55:35;10.10;99.90
13694;DHT22;6919;52.344;14.518;2024-03-02T03:58:04;10.10;99.90
13694;DHT22;6919;52.344;14.518;2024-03-02T04:00:32;10.00;99.90
13694;DHT22;6919;52.344;14.518;2024-03-02T04:03:00;10.00;99.90
13694;DHT22;6919;52.344;14.518;2024-03-02T04:05:30;10.10;99.90
13694;DHT22;6919;52.344;14.518;2024-03-02T04:07:58;10.10;99.90
13694;DHT22;6919;52.344;14.518;2024-03-02T04:10:27;10.10;99.90
13694;DHT22;6919;52.344;14.518;2024-03-02T04:12:55;10.10;99.90
13694;DHT22;6919;52.344;14.518;2024-03-02T04:15:24;10.00;99.90
13694;DHT22;6919;52.344;14.518;2024-03-02T04:17:52;10.00;99.90
13694;DHT22;6919;52.344;14.518;2024-03-02T04:20:20;10.10;99.90
13694;DHT22;6919;52.344;14.518;2024-03-02T04:22:50;10.00;99.90
13694;DHT22;6919;52.344;14.518;2024-03-02T04:25:18;10.10;99.90
13694;DHT22;6919;52.344;14.518;2024-03-02T04:27:47;10.00;99.90
13694;DHT22;6919;52.344;14.518;2024-03-02T04:30:15;9.90;99.90
13694;DHT22;6919;52.344;14.518;2024-03-02T04:32:43;10.00;99.90
13694;DHT22;6919;52.344;14.518;2024-03-02T04:35:13;10.00;99.90
13694;DHT22;6919;52.344;14.518;2024-03-02T04:37:42;10.00;99.90
13694;DHT22;6919;52.344;14.518;2024-03-02T04:40:12;10.00;99.90
13694;DHT22;6919;52.344;14.518;2024-03-02T04:42:40;9.90;99.90
13694;DHT22;6919;52.344;14.518;2024-03-02T04:45:09;9.90;99.90
13694;DHT22;6919;52.344;14.518;2024-03-02T04:47:38;9.90;99.90
13694;DHT22;6919;52.344;14.518;2024-03-02T04:50:07;10.00;99.90
13694;DHT22;6919;52.344;14.518;2024-03-02T04:52:36;10.00;99.90
13694;DHT22;6919;52.344;14.518;2024-03-02T04:55:04;9.90;99.90
13694;DHT22;6919;52.344;14.518;2024-03-02T04:57:57;9.90;99.90
13694;DHT22;6919;52.344;14.518;2024-03-02T05:00:26;9.90;99.90
13694;DHT22;6919;52.344;14.518;2024-03-02T05:02:54;9.90;99.90
13694;DHT22;6919;52.344;14.518;2024-03-02T05:05:22;9.90;99.90
13694;DHT22;6919;52.344;14.518;2024-03-02T05:07:51;9.80;99.90
13694;DHT22;6919;52.344;14.518;2024-03-02T05:10:19;9.90;99.90
13694;DHT22;6919;52.344;14.518;2024-03-02T05:12:47;9.80;99.90
13694;DHT22;6919;52.344;14.518;2024-03-02T05:15:25;9.90;99.90
13694;DHT22;6919;52.344;14.518;2024-03-02T05:17:53;9.90;99.90
13694;DHT22;6919;52.344;14.518;2024-03-02T05:20:24;9.90;99.90
13694;DHT22;6919;52.344;14.518;2024-03-02T05:22:52;9.90;99.90
13694;DHT22;6919;52.344;14.518;2024-03-02T05:25:20;9.90;99.90
13694;DHT22;6919;52.344;14.518;2024-03-02T05:27:48;9.80;99.90
13694;DHT22;6919;52.344;14.518;2024-03-02T05:30:17;9.80;99.90
13694;DHT22;6919;52.344;14.518;2024-03-02T05:32:47;9.80;99.90
13694;DHT22;6919;52.344;14.518;2024-03-02T05:35:15;9.80;99.90
13694;DHT22;6919;52.344;14.518;2024-03-02T05:37:43;9.70;99.90
13694;DHT22;6919;52.344;14.518;2024-03-02T05:40:12;9.70;99.90
13694;DHT22;6919;52.344;14.518;2024-03-02T05:42:40;9.80;99.90
13694;DHT22;6919;52.344;14.518;2024-03-02T05:45:09;9.80;99.90
13694;DHT22;6919;52.344;14.518;2024-03-02T05:47:38;9.80;99.90
13694;DHT22;6919;52.344;14.518;2024-03-02T05:50:08;9.80;99.90
13694;DHT22;6919;52.344;14.518;2024-03-02T05:52:36;9.80;99.90
13694;DHT22;6919;52.344;14.518;2024-03-02T05:55:06;9.70;99.90
13694;DHT22;6919;52.344;14.518;2024-03-02T05:57:34;9.80;99.90
13694;DHT22;6919;52.344;14.518;2024-03-02T06:00:16;9.80;99.90
13694;DHT22;6919;52.344;14.518;2024-03-02T06:02:45;9.80;99.90
13694;DHT22;6919;52.344;14.518;2024-03-02T06:05:15;9.80;99.90
13694;DHT22;6919;52.344;14.518;2024-03-02T06:07:43;9.80;99.90
13694;DHT22;6919;52.344;14.518;2024-03-02T06:10:12;9.80;99.90
13694;DHT22;6919;52.344;14.518;2024-03-02T06:12:41;9.80;99.90
13694;DHT22;6919;52.344;14.518;2024-03-02T06:15:09;9.80;99.90
13694;DHT22;6919;52.344;14.518;2024-03-02T06:17:37;9.90;99.90
13694;DHT22;6919;52.344;14.518;2024-03-02T06:20:06;9.80;99.90
13694;DHT22;6919;52.344;14.518;2024-03-02T06:22:37;9.80;99.90
13694;DHT22;6919;52.344;14.518;2024-03-02T06:25:06;9.70;99.90
13694;DHT22;6919;52.344;14.518;2024-03-02T06:27:35;9.80;99.90
13694;DHT22;6919;52.344;14.518;2024-03-02T06:30:04;9.80;99.90
13694;DHT22;6919;52.344;14.518;2024-03-02T06:32:33;9.70;99.90
13694;DHT22;6919;52.344;14.518;2024-03-02T06:35:02;9.70;99.90
13694;DHT22;6919;52.344;14.518;2024-03-02T06:37:32;9.70;99.90
13694;DHT22;6919;52.344;14.518;2024-03-02T06:40:02;9.70;99.90
13694;DHT22;6919;52.344;14.518;2024-03-02T06:42:30;9.80;99.90
13694;DHT22;6919;52.344;14.518;2024-03-02T06:45:01;9.80;99.90
13694;DHT22;6919;52.344;14.518;2024-03-02T06:47:29;9.80;99.90
13694;DHT22;6919;52.344;14.518;2024-03-02T06:49:58;9.90;99.90
13694;DHT22;6919;52.344;14.518;2024-03-02T06:52:26;9.80;99.90
13694;DHT22;6919;52.344;14.518;2024-03-02T06:54:55;9.80;99.90
13694;DHT22;6919;52.344;14.518;2024-03-02T06:57:24;9.80;99.90
13694;DHT22;6919;52.344;14.518;2024-03-02T06:59:53;9.70;99.90
13694;DHT22;6919;52.344;14.518;2024-03-02T07:02:25;9.70;99.90
13694;DHT22;6919;52.344;14.518;2024-03-02T07:04:53;9.80;99.90
13694;DHT22;6919;52.344;14.518;2024-03-02T07:07:22;9.80;99.90
13694;DHT22;6919;52.344;14.518;2024-03-02T07:09:50;9.70;99.90
13694;DHT22;6919;52.344;14.518;2024-03-02T07:12:18;9.80;99.90
13694;DHT22;6919;52.344;14.518;2024-03-02T07:14:48;9.80;99.90
13694;DHT22;6919;52.344;14.518;2024-03-02T07:17:38;9.90;99.90
13694;DHT22;6919;52.344;14.518;2024-03-02T07:20:06;9.80;99.90
13694;DHT22;6919;52.344;14.518;2024-03-02T07:22:35;9.80;99.90
13694;DHT22;6919;52.344;14.518;2024-03-02T07:25:07;9.80;99.90
13694;DHT22;6919;52.344;14.518;2024-03-02T07:27:56;9.90;99.90
13694;DHT22;6919;52.344;14.518;2024-03-02T07:30:26;9.90;99.90
13694;DHT22;6919;52.344;14.518;2024-03-02T07:32:56;9.90;99.90
13694;DHT22;6919;52.344;14.518;2024-03-02T07:35:25;10.00;99.90
13694;DHT22;6919;52.344;14.518;2024-03-02T07:37:54;10.00;99.90
13694;DHT22;6919;52.344;14.518;2024-03-02T07:40:23;9.90;99.90
13694;DHT22;6919;52.344;14.518;2024-03-02T07:42:52;9.90;99.90
13694;DHT22;6919;52.344;14.518;2024-03-02T07:45:20;9.90;99.90
13694;DHT22;6919;52.344;14.518;2024-03-02T07:47:50;9.90;99.90
13694;DHT22;6919;52.344;14.518;2024-03-02T07:50:18;10.00;99.90
13694;DHT22;6919;52.344;14.518;2024-03-02T07:52:47;10.00;99.90
13694;DHT22;6919;52.344;14.518;2024-03-02T07:55:15;10.00;99.90
13694;DHT22;6919;52.344;14.518;2024-03-02T07:57:44;10.00;99.90
13694;DHT22;6919;52.344;14.518;2024-03-02T08:00:13;10.00;99.90
13694;DHT22;6919;52.344;14.518;2024-03-02T08:02:42;10.00;99.90
13694;DHT22;6919;52.344;14.518;2024-03-02T08:05:12;10.00;99.90
13694;DHT22;6919;52.344;14.518;2024-03-02T08:07:41;10.10;99.90
13694;DHT22;6919;52.344;14.518;2024-03-02T08:10:09;10.10;99.90
13694;DHT22;6919;52.344;14.518;2024-03-02T08:12:38;10.00;99.90
13694;DHT22;6919;52.344;14.518;2024-03-02T08:15:07;10.10;99.90
13694;DHT22;6919;52.344;14.518;2024-03-02T08:17:35;10.10;99.90
13694;DHT22;6919;52.344;14.518;2024-03-02T08:20:06;10.10;99.90
13694;DHT22;6919;52.344;14.518;2024-03-02T08:22:37;10.10;99.90
13694;DHT22;6919;52.344;14.518;2024-03-02T08:25:06;10.10;99.90
13694;DHT22;6919;52.344;14.518;2024-03-02T08:27:36;10.10;99.90
13694;DHT22;6919;52.344;14.518;2024-03-02T08:30:06;10.10;99.90
13694;DHT22;6919;52.344;14.518;2024-03-02T08:32:37;10.10;99.90
13694;DHT22;6919;52.344;14.518;2024-03-02T08:35:06;10.10;99.90
13694;DHT22;6919;52.344;14.518;2024-03-02T08:37:35;10.20;99.90
13694;DHT22;6919;52.344;14.518;2024-03-02T08:40:08;10.10;99.90
13694;DHT22;6919;52.344;14.518;2024-03-02T08:42:39;10.10;99.90
13694;DHT22;6919;52.344;14.518;2024-03-02T08:45:08;10.10;99.90
13694;DHT22;6919;52.344;14.518;2024-03-02T08:47:37;10.10;99.90
13694;DHT22;6919;52.344;14.518;2024-03-02T08:50:07;10.20;99.90
13694;DHT22;6919;52.344;14.518;2024-03-02T08:52:36;10.30;99.90
13694;DHT22;6919;52.344;14.518;2024-03-02T08:55:06;10.30;99.90
13694;DHT22;6919;52.344;14.518;2024-03-02T08:57:35;10.20;99.90
13694;DHT22;6919;52.344;14.518;2024-03-02T09:00:05;10.20;99.90
13694;DHT22;6919;52.344;14.518;2024-03-02T09:02:34;10.30;99.90
13694;DHT22;6919;52.344;14.518;2024-03-02T09:05:03;10.20;99.90
13694;DHT22;6919;52.344;14.518;2024-03-02T09:07:33;10.20;99.90
13694;DHT22;6919;52.344;14.518;2024-03-02T09:10:01;10.20;99.90
13694;DHT22;6919;52.344;14.518;2024-03-02T09:12:31;10.20;99.90
13694;DHT22;6919;52.344;14.518;2024-03-02T09:15:00;10.20;99.90
13694;DHT22;6919;52.344;14.518;2024-03-02T09:17:30;10.20;99.90
13694;DHT22;6919;52.344;14.518;2024-03-02T09:19:58;10.40;99.90
13694;DHT22;6919;52.344;14.518;2024-03-02T09:22:28;10.40;99.90
13694;DHT22;6919;52.344;14.518;2024-03-02T09:24:56;10.40;99.90
13694;DHT22;6919;52.344;14.518;2024-03-02T09:27:25;10.50;99.90
13694;DHT22;6919;52.344;14.518;2024-03-02T09:29:55;10.40;99.90
13694;DHT22;6919;52.344;14.518;2024-03-02T09:32:24;10.50;99.90
13694;DHT22;6919;52.344;14.518;2024-03-02T09:34:52;10.40;99.90
13694;DHT22;6919;52.344;14.518;2024-03-02T09:37:23;10.40;99.90
13694;DHT22;6919;52.344;14.518;2024-03-02T09:39:51;10.50;99.90
13694;DHT22;6919;52.344;14.518;2024-03-02T09:42:20;10.60;99.90
13694;DHT22;6919;52.344;14.518;2024-03-02T09:44:50;10.50;99.90
13694;DHT22;6919;52.344;14.518;2024-03-02T09:47:20;10.50;99.90
13694;DHT22;6919;52.344;14.518;2024-03-02T09:49:49;10.40;99.90
13694;DHT22;6919;52.344;14.518;2024-03-02T09:52:17;10.50;99.90
13694;DHT22;6919;52.344;14.518;2024-03-02T09:54:47;10.60;99.90
13694;DHT22;6919;52.344;14.518;2024-03-02T09:57:16;10.70;99.90
13694;DHT22;6919;52.344;14.518;2024-03-02T09:59:45;10.70;99.90
13694;DHT22;6919;52.344;14.518;2024-03-02T10:02:14;10.70;99.90
13694;DHT22;6919;52.344;14.518;2024-03-02T10:04:44;10.70;99.90
13694;DHT22;6919;52.344;14.518;2024-03-02T10:07:14;10.80;99.90
13694;DHT22;6919;52.344;14.518;2024-03-02T10:09:45;10.90;99.90
13694;DHT22;6919;52.344;14.518;2024-03-02T10:12:16;10.80;99.90
13694;DHT22;6919;52.344;14.518;2024-03-02T10:14:45;10.90;99.90
13694;DHT22;6919;52.344;14.518;2024-03-02T10:17:17;11.00;99.90
13694;DHT22;6919;52.344;14.518;2024-03-02T10:19:47;11.20;99.90
13694;DHT22;6919;52.344;14.518;2024-03-02T10:22:15;11.30;99.90
13694;DHT22;6919;52.344;14.518;2024-03-02T10:24:44;11.50;99.90
13694;DHT22;6919;52.344;14.518;2024-03-02T10:27:16;11.60;99.90
13694;DHT22;6919;52.344;14.518;2024-03-02T10:29:46;11.60;99.90
13694;DHT22;6919;52.344;14.518;2024-03-02T10:32:15;11.70;99.90
13694;DHT22;6919;52.344;14.518;2024-03-02T10:34:45;11.80;99.90
13694;DHT22;6919;52.344;14.518;2024-03-02T10:37:16;11.80;99.90
13694;DHT22;6919;52.344;14.518;2024-03-02T10:39:46;11.80;99.90
13694;DHT22;6919;52.344;14.518;2024-03-02T10:42:16;11.80;99.90
13694;DHT22;6919;52.344;14.518;2024-03-02T10:44:48;11.90;99.90
13694;DHT22;6919;52.344;14.518;2024-03-02T10:47:20;12.00;99.90
13694;DHT22;6919;52.344;14.518;2024-03-02T10:49:52;12.10;99.90
13694;DHT22;6919;52.344;14.518;2024-03-02T10:52:22;12.20;99.90
13694;DHT22;6919;52.344;14.518;2024-03-02T10:54:51;12.10;99.90
13694;DHT22;6919;52.344;14.518;2024-03-02T10:57:21;11.40;99.90
13694;DHT22;6919;52.344;14.518;2024-03-02T10:59:56;10.70;99.90
13694;DHT22;6919;52.344;14.518;2024-03-02T11:02:31;10.40;99.90
13694;DHT22;6919;52.344;14.518;2024-03-02T11:05:05;10.20;99.90
13694;DHT22;6919;52.344;14.518;2024-03-02T11:07:37;10.10;99.90
13694;DHT22;6919;52.344;14.518;2024-03-02T11:10:08;10.00;99.90
13694;DHT22;6919;52.344;14.518;2024-03-02T11:12:41;10.10;99.90
13694;DHT22;6919;52.344;14.518;2024-03-02T11:15:18;10.20;99.90
13694;DHT22;6919;52.344;14.518;2024-03-02T11:17:47;10.20;99.90
13694;DHT22;6919;52.344;14.518;2024-03-02T11:20:18;10.10;99.90
13694;DHT22;6919;52.344;14.518;2024-03-02T11:22:47;10.20;99.90
13694;DHT22;6919;52.344;14.518;2024-03-02T11:25:26;10.30;99.90
13694;DHT22;6919;52.344;14.518;2024-03-02T11:28:05;10.30;99.90
13694;DHT22;6919;52.344;14.518;2024-03-02T11:30:52;10.50;99.90
13694;DHT22;6919;52.344;14.518;2024-03-02T11:33:25;10.70;99.90
13694;DHT22;6919;52.344;14.518;2024-03-02T11:35:58;11.10;99.90
13694;DHT22;6919;52.344;14.518;2024-03-02T11:38:33;11.50;99.90
13694;DHT22;6919;52.344;14.518;2024-03-02T11:41:06;11.80;99.90
13694;DHT22;6919;52.344;14.518;2024-03-02T11:43:37;12.00;99.90
13694;DHT22;6919;52.344;14.518;2024-03-02T11:46:07;12.00;99.90
13694;DHT22;6919;52.344;14.518;2024-03-02T11:48:37;12.20;99.90
13694;DHT22;6919;52.344;14.518;2024-03-02T11:51:09;12.20;99.90
13694;DHT22;6919;52.344;14.518;2024-03-02T11:53:39;12.20;99.90
13694;DHT22;6919;52.344;14.518;2024-03-02T11:56:09;12.40;99.90
13694;DHT22;6919;52.344;14.518;2024-03-02T11:58:40;12.60;99.90
13694;DHT22;6919;52.344;14.518;2024-03-02T12:01:10;12.80;99.90
13694;DHT22;6919;52.344;14.518;2024-03-02T12:03:40;12.90;99.90
13694;DHT22;6919;52.344;14.518;2024-03-02T12:06:10;13.00;99.90
13694;DHT22;6919;52.344;14.518;2024-03-02T12:08:40;13.20;99.90
13694;DHT22;6919;52.344;14.518;2024-03-02T12:11:13;13.20;99.90
13694;DHT22;6919;52.344;14.518;2024-03-02T12:13:51;13.10;99.90
13694;DHT22;6919;52.344;14.518;2024-03-02T12:16:23;13.00;99.90
13694;DHT22;6919;52.344;14.518;2024-03-02T12:18:52;12.90;99.90
13694;DHT22;6919;52.344;14.518;2024-03-02T12:21:22;13.00;99.90
13694;DHT22;6919;52.344;14.518;2024-03-02T12:23:51;12.90;99.90
13694;DHT22;6919;52.344;14.518;2024-03-02T12:26:20;13.00;99.90
13694;DHT22;6919;52.344;14.518;2024-03-02T12:28:48;13.00;99.90
13694;DHT22;6919;52.344;14.518;2024-03-02T12:31:17;13.10;99.90
13694;DHT22;6919;52.344;14.518;2024-03-02T12:33:46;13.30;99.90
13694;DHT22;6919;52.344;14.518;2024-03-02T12:36:14;13.40;99.90
13694;DHT22;6919;52.344;14.518;2024-03-02T12:38:44;13.50;99.90
13694;DHT22;6919;52.344;14.518;2024-03-02T12:41:15;13.90;99.90
13694;DHT22;6919;52.344;14.518;2024-03-02T12:43:43;13.90;99.90
13694;DHT22;6919;52.344;14.518;2024-03-02T12:46:12;13.60;99.90
13694;DHT22;6919;52.344;14.518;2024-03-02T12:48:40;13.50;99.90
13694;DHT22;6919;52.344;14.518;2024-03-02T12:51:09;13.60;99.90
13694;DHT22;6919;52.344;14.518;2024-03-02T12:53:37;13.60;99.90
13694;DHT22;6919;52.344;14.518;2024-03-02T12:56:08;13.50;99.90
13694;DHT22;6919;52.344;14.518;2024-03-02T12:58:39;13.60;99.90
13694;DHT22;6919;52.344;14.518;2024-03-02T13:01:09;13.70;99.90
13694;DHT22;6919;52.344;14.518;2024-03-02T13:03:38;13.70;99.90
13694;DHT22;6919;52.344;14.518;2024-03-02T13:06:07;13.80;99.90
13694;DHT22;6919;52.344;14.518;2024-03-02T13:08:36;13.90;99.90
13694;DHT22;6919;52.344;14.518;2024-03-02T13:11:04;13.80;99.90
13694;DHT22;6919;52.344;14.518;2024-03-02T13:13:35;13.90;99.90
13694;DHT22;6919;52.344;14.518;2024-03-02T13:16:07;14.10;99.90
13694;DHT22;6919;52.344;14.518;2024-03-02T13:18:38;14.10;99.90
13694;DHT22;6919;52.344;14.518;2024-03-02T13:21:06;14.30;99.90
13694;DHT22;6919;52.344;14.518;2024-03-02T13:23:34;14.50;99.90
13694;DHT22;6919;52.344;14.518;2024-03-02T13:26:03;14.60;99.90
13694;DHT22;6919;52.344;14.518;2024-03-02T13:28:32;14.30;99.90
13694;DHT22;6919;52.344;14.518;2024-03-02T13:31:01;14.10;99.90
13694;DHT22;6919;52.344;14.518;2024-03-02T13:33:30;14.00;99.90
13694;DHT22;6919;52.344;14.518;2024-03-02T13:35:59;13.90;99.90
13694;DHT22;6919;52.344;14.518;2024-03-02T13:38:28;13.90;99.90
13694;DHT22;6919;52.344;14.518;2024-03-02T13:40:56;13.90;99.90
13694;DHT22;6919;52.344;14.518;2024-03-02T13:43:27;14.00;99.90
13694;DHT22;6919;52.344;14.518;2024-03-02T13:45:58;14.00;99.90
13694;DHT22;6919;52.344;14.518;2024-03-02T13:48:28;14.10;99.90
13694;DHT22;6919;52.344;14.518;2024-03-02T13:50:57;14.10;99.90
13694;DHT22;6919;52.344;14.518;2024-03-02T13:53:26;14.10;99.90
13694;DHT22;6919;52.344;14.518;2024-03-02T13:55:55;14.10;99.90
13694;DHT22;6919;52.344;14.518;2024-03-02T13:58:23;14.00;99.90
13694;DHT22;6919;52.344;14.518;2024-03-02T14:00:51;14.10;99.90
13694;DHT22;6919;52.344;14.518;2024-03-02T14:03:20;13.90;99.90
13694;DHT22;6919;52.344;14.518;2024-03-02T14:05:51;13.70;99.90
13694;DHT22;6919;52.344;14.518;2024-03-02T14:08:20;13.60;99.90
13694;DHT22;6919;52.344;14.518;2024-03-02T14:10:48;13.50;99.90
13694;DHT22;6919;52.344;14.518;2024-03-02T14:13:16;13.50;99.90
13694;DHT22;6919;52.344;14.518;2024-03-02T14:15:45;13.50;99.90
13694;DHT22;6919;52.344;14.518;2024-03-02T14:18:13;13.50;99.90
13694;DHT22;6919;52.344;14.518;2024-03-02T14:20:41;13.40;99.90
13694;DHT22;6919;52.344;14.518;2024-03-02T14:23:13;13.40;99.90
13694;DHT22;6919;52.344;14.518;2024-03-02T14:25:42;13.40;99.90
13694;DHT22;6919;52.344;14.518;2024-03-02T14:28:10;13.30;99.90
13694;DHT22;6919;52.344;14.518;2024-03-02T14:30:42;13.30;99.90
13694;DHT22;6919;52.344;14.518;2024-03-02T14:33:11;13.30;99.90
13694;DHT22;6919;52.344;14.518;2024-03-02T14:35:40;13.40;99.90
13694;DHT22;6919;52.344;14.518;2024-03-02T14:38:08;13.30;99.90
13694;DHT22;6919;52.344;14.518;2024-03-02T14:40:38;13.40;99.90
13694;DHT22;6919;52.344;14.518;2024-03-02T14:43:06;13.40;99.90
13694;DHT22;6919;52.344;14.518;2024-03-02T14:45:35;13.40;99.90
13694;DHT22;6919;52.344;14.518;2024-03-02T14:48:04;13.40;99.90
13694;DHT22;6919;52.344;14.518;2024-03-02T14:50:34;13.40;99.90
13694;DHT22;6919;52.344;14.518;2024-03-02T14:53:03;13.40;99.90
13694;DHT22;6919;52.344;14.518;2024-03-02T14:55:33;13.20;99.90
13694;DHT22;6919;52.344;14.518;2024-03-02T14:58:03;13.20;99.90
13694;DHT22;6919;52.344;14.518;2024-03-02T15:00:32;13.20;99.90
13694;DHT22;6919;52.344;14.518;2024-03-02T15:03:00;13.10;99.90
13694;DHT22;6919;52.344;14.518;2024-03-02T15:05:30;13.10;99.90
13694;DHT22;6919;52.344;14.518;2024-03-02T15:07:59;13.10;99.90
13694;DHT22;6919;52.344;14.518;2024-03-02T15:10:29;13.10;99.90
13694;DHT22;6919;52.344;14.518;2024-03-02T15:12:57;13.10;99.90
13694;DHT22;6919;52.344;14.518;2024-03-02T15:15:28;13.10;99.90
13694;DHT22;6919;52.344;14.518;2024-03-02T15:17:56;13.00;99.90
13694;DHT22;6919;52.344;14.518;2024-03-02T15:20:24;13.10;99.90
13694;DHT22;6919;52.344;14.518;2024-03-02T15:22:52;13.00;99.90
13694;DHT22;6919;52.344;14.518;2024-03-02T15:25:21;12.90;99.90
13694;DHT22;6919;52.344;14.518;2024-03-02T15:27:49;12.90;99.90
13694;DHT22;6919;52.344;14.518;2024-03-02T15:30:17;12.80;99.90
13694;DHT22;6919;52.344;14.518;2024-03-02T15:32:47;12.80;99.90
13694;DHT22;6919;52.344;14.518;2024-03-02T15:35:16;12.80;99.90
13694;DHT22;6919;52.344;14.518;2024-03-02T15:37:44;12.70;99.90
13694;DHT22;6919;52.344;14.518;2024-03-02T15:40:12;12.60;99.90
13694;DHT22;6919;52.344;14.518;2024-03-02T15:42:40;12.60;99.90
13694;DHT22;6919;52.344;14.518;2024-03-02T15:45:09;12.60;99.90
13694;DHT22;6919;52.344;14.518;2024-03-02T15:47:37;12.50;99.90
13694;DHT22;6919;52.344;14.518;2024-03-02T15:50:08;12.50;99.90